Terminal Aerodrome Forecast
Issued by NWS

Home | Current Version | Previous Version | Text Only | Print | Product List | Glossary On
Versions: 1 2 3 4 5 6 7 8 9 10 11 12 13 14 15 16 17 18 19 20 21 22 23 24 25 26
000
FTUS45 KLKN 182320
TAFELY
TAF
KELY 182320Z 1900/1924 03011G18KT P6SM BKN090
     FM190300 34006KT P6SM FEW090 SCT250
     FM190900 17008KT P6SM SKC
     FM191900 34007KT P6SM SCT100 SCT200=

USA.gov is the U.S. government's official web portal to all federal, state and local government web resources and services.